Scout — WCZ2046 — position and weather

sailwx.info

Track history (hours):
 
Tides and Currents Weather Stations Pressure Air Temp Water Temp Dewpoint Dewpoint Depression Visibility Wind Speed Wind Dir Waves Ship Positions

Scout

Owner: Crowley Marine Services, SEATTLE, WA. More information available from US FCC via Universal Licensing System and Coast Guard Vessel Documentation Center.

Last reported at 2016-Jul-25 17:32 UTC. Time now 2016-Jul-25 17:49 UTC.
Position N 32°40' W 117°07'.

; draft 5.6 m.

Type: Tug. MMSI: 366764730.

Date/timePositionNaut miles runAvg speedWind from/ knotsBaromVisibWave heightAir tempDewpointWater temp
2016-Jul-25 17:32N 32°40' W 117°07'0 0.0
2016-Jul-25 16:32N 32°40' W 117°07'1 0.8
2016-Jul-25 15:25N 32°39' W 117°07'3 3.9
2016-Jul-25 14:34N 32°42' W 117°09'0 0.0
2016-Jul-25 13:33N 32°42' W 117°09'0 0.0
2016-Jul-25 12:30N 32°42' W 117°09'0 0.0
2016-Jul-25 11:33N 32°42' W 117°09'0 0.1
2016-Jul-25 10:33N 32°42' W 117°09'0 0.1
2016-Jul-25 09:33N 32°42' W 117°09'0 0.0
2016-Jul-25 08:32N 32°42' W 117°09'0 0.0
2016-Jul-25 07:33N 32°42' W 117°09'0 0.0
2016-Jul-25 06:32N 32°42' W 117°09'0 0.0
2016-Jul-25 05:33N 32°42' W 117°09'0 0.0
2016-Jul-25 04:33N 32°42' W 117°09'0 0.0
2016-Jul-25 03:26N 32°42' W 117°09'0 0.0
2016-Jul-25 02:34N 32°42' W 117°09'0 0.0
2016-Jul-25 01:33N 32°42' W 117°09'0 0.0
2016-Jul-25 00:33N 32°42' W 117°09'0 0.0
2016-Jul-24 23:33N 32°42' W 117°09'0 0.0
2016-Jul-24 22:33N 32°42' W 117°09'0 0.0
2016-Jul-24 21:34N 32°42' W 117°09'0 0.1
2016-Jul-24 20:33N 32°42' W 117°09'0 0.1
2016-Jul-24 19:33N 32°42' W 117°09'0 0.0
2016-Jul-24 18:33N 32°42' W 117°09'0 0.1
2016-Jul-24 17:33N 32°42' W 117°09'0 0.0
2016-Jul-24 16:21N 32°42' W 117°09'0 0.0
2016-Jul-24 13:08N 32°42' W 117°09'0 0.0
2016-Jul-24 12:29N 32°42' W 117°09'0 0.3
2016-Jul-24 11:21N 32°42' W 117°10'0 0.2
2016-Jul-24 09:29N 32°42' W 117°09'0 0.0
2016-Jul-24 08:29N 32°42' W 117°09'0 0.0
2016-Jul-24 07:18N 32°42' W 117°09'0 0.0
2016-Jul-24 05:30N 32°42' W 117°09'0 0.0
2016-Jul-24 04:05N 32°42' W 117°09'0 0.0
2016-Jul-24 02:33N 32°42' W 117°09'0 0.0
2016-Jul-24 01:24N 32°42' W 117°09'0 0.1
2016-Jul-24 00:30N 32°42' W 117°09'0 0.0
2016-Jul-23 23:24N 32°42' W 117°09'0 0.0
2016-Jul-23 17:32N 32°42' W 117°09'0 0.0
2016-Jul-23 15:33N 32°42' W 117°09'0 0.0
2016-Jul-23 08:27N 32°42' W 117°09'0 0.0
2016-Jul-23 06:15N 32°42' W 117°09'0 0.0
2016-Jul-23 04:31N 32°42' W 117°09'3 3.4
2016-Jul-23 03:32N 32°39' W 117°07'3 0.6
2016-Jul-22 22:23N 32°42' W 117°09'0 0.0
2016-Jul-22 20:06N 32°42' W 117°09'0 0.0
2016-Jul-22 16:07N 32°42' W 117°09'0 0.1
2016-Jul-22 15:29N 32°42' W 117°09'0 0.0
2016-Jul-22 12:25N 32°42' W 117°09'0 0.0
2016-Jul-22 11:28N 32°42' W 117°09'0 0.0
2016-Jul-22 10:04N 32°42' W 117°09'0 0.0
2016-Jul-22 09:30N 32°42' W 117°09'0 0.0
2016-Jul-22 08:32N 32°42' W 117°09'0 0.0
2016-Jul-21 16:28N 32°42' W 117°09'3 3.1
2016-Jul-21 15:25N 32°39' W 117°07'3 0.4
2016-Jul-21 07:05N 32°42' W 117°09'0 0.0
2016-Jul-21 06:24N 32°42' W 117°09'0 0.0
2016-Jul-21 03:14N 32°42' W 117°09'2 3.1
2016-Jul-21 02:28N 32°43' W 117°12'3 1.1
2016-Jul-20 23:24N 32°41' W 117°08'1 0.2
2016-Jul-20 18:26N 32°42' W 117°09'0 0.0
2016-Jul-20 15:32N 32°42' W 117°09'0 0.0
2016-Jul-20 14:32N 32°42' W 117°09'3 3.5
2016-Jul-20 13:34N 32°39' W 117°07'3 3.3
2016-Jul-20 12:33N 32°42' W 117°09'0 0.0
2016-Jul-20 11:32N 32°42' W 117°09'0 0.1
2016-Jul-20 10:33N 32°42' W 117°09'0 0.0
2016-Jul-20 09:13N 32°42' W 117°09'0 0.0
2016-Jul-20 08:33N 32°42' W 117°09'0 0.0
2016-Jul-20 07:33N 32°42' W 117°09'0 0.0
2016-Jul-20 06:31N 32°42' W 117°09'0 0.0
2016-Jul-20 04:29N 32°42' W 117°09'0 0.0
2016-Jul-20 03:33N 32°42' W 117°09'0 0.0
2016-Jul-20 01:24N 32°42' W 117°09'3 3.5
2016-Jul-20 00:34N 32°39' W 117°07'3 2.5
2016-Jul-19 23:25N 32°42' W 117°09'0 0.0
2016-Jul-19 22:32N 32°42' W 117°09'0 0.0
2016-Jul-19 21:30N 32°42' W 117°09'0 0.0
2016-Jul-19 20:31N 32°42' W 117°09'0 0.0
2016-Jul-19 19:25N 32°42' W 117°09'0 0.0
2016-Jul-19 18:25N 32°42' W 117°09'0 0.0
2016-Jul-19 17:33N 32°42' W 117°09'0 0.0
2016-Jul-19 16:31N 32°42' W 117°09'0 0.0
2016-Jul-19 15:23N 32°42' W 117°09'0 0.0
2016-Jul-19 14:31N 32°42' W 117°09'0 0.1
2016-Jul-19 13:34N 32°42' W 117°09'0 0.1
2016-Jul-19 12:33N 32°42' W 117°09'0 0.1
2016-Jul-19 11:33N 32°42' W 117°09'1 1.2
2016-Jul-19 10:31N 32°41' W 117°08'1 1.3
2016-Jul-19 09:34N 32°42' W 117°09'0 0.0
2016-Jul-19 08:33N 32°42' W 117°09'0 0.0
2016-Jul-19 07:33N 32°42' W 117°09'0 0.0
2016-Jul-19 02:32N 32°42' W 117°09'0 0.0
2016-Jul-19 01:33N 32°42' W 117°09'0 0.0
2016-Jul-18 22:33N 32°42' W 117°09'0 0.0
2016-Jul-18 21:27N 32°42' W 117°09'0 0.0
2016-Jul-18 20:24N 32°42' W 117°09'0 0.1
2016-Jul-18 19:32N 32°42' W 117°09'0 0.0
2016-Jul-18 18:34N 32°42' W 117°09'0 0.1
2016-Jul-18 17:33N 32°42' W 117°09'0 0.0
2016-Jul-18 16:32N 32°42' W 117°09'0 0.0
2016-Jul-18 15:32N 32°42' W 117°09'0 0.1
2016-Jul-18 14:34N 32°42' W 117°09'0 0.0
2016-Jul-18 13:33N 32°42' W 117°09'0 0.0
2016-Jul-18 12:33N 32°42' W 117°09'0 0.4
2016-Jul-18 11:32N 32°42' W 117°10'0 0.4
2016-Jul-18 10:33N 32°42' W 117°09'0 0.0
2016-Jul-18 09:25N 32°42' W 117°09'0 0.0
2016-Jul-18 08:32N 32°42' W 117°09'0 0.0
2016-Jul-18 07:33N 32°42' W 117°09'0 0.0
2016-Jul-18 04:29N 32°42' W 117°09'2 1.8
2016-Jul-18 03:33N 32°40' W 117°08'2 1.6
2016-Jul-18 02:33N 32°42' W 117°09'0 0.1
2016-Jul-18 00:13N 32°42' W 117°09'0 0.1
2016-Jul-17 23:33N 32°42' W 117°09'0 0.1
2016-Jul-17 22:34N 32°42' W 117°09'0 0.0
2016-Jul-17 21:34N 32°42' W 117°09'0 0.0
2016-Jul-17 20:33N 32°42' W 117°09'0 0.0
2016-Jul-17 19:33N 32°42' W 117°09'0 0.0
2016-Jul-17 18:33N 32°42' W 117°09'0 0.0
2016-Jul-17 17:34N 32°42' W 117°09'0 0.0
2016-Jul-17 16:29N 32°42' W 117°09'0 0.0
2016-Jul-17 15:31N 32°42' W 117°09'0 0.0
2016-Jul-17 14:28N 32°42' W 117°09'0 0.0
2016-Jul-17 13:33N 32°42' W 117°09'0 0.0
2016-Jul-17 12:34N 32°42' W 117°09'0 0.0
2016-Jul-17 11:33N 32°42' W 117°09'0 0.0
2016-Jul-17 10:34N 32°42' W 117°09'0 0.0
2016-Jul-17 09:32N 32°42' W 117°09'0 0.0
2016-Jul-17 08:33N 32°42' W 117°09'0 0.0
2016-Jul-17 07:18N 32°42' W 117°09'0 0.0
2016-Jul-17 06:24N 32°42' W 117°09'0 0.0
2016-Jul-16 23:33N 32°42' W 117°09'1 0.9
2016-Jul-16 22:26N 32°41' W 117°08'0 0.1
2016-Jul-16 21:32N 32°41' W 117°08'0 0.1
2016-Jul-16 20:30N 32°41' W 117°08'1 0.4
2016-Jul-16 18:33N 32°42' W 117°09'0 0.0
2016-Jul-16 17:33N 32°42' W 117°09'0 0.0
2016-Jul-16 16:33N 32°42' W 117°09'0 0.0
2016-Jul-16 15:33N 32°42' W 117°09'0 0.0
2016-Jul-16 14:33N 32°42' W 117°09'0 0.0
2016-Jul-16 13:29N 32°42' W 117°09'0 0.0
2016-Jul-16 12:30N 32°42' W 117°09'0 0.1
2016-Jul-16 11:32N 32°42' W 117°09'0 0.0
2016-Jul-16 10:30N 32°42' W 117°09'0 0.0
2016-Jul-16 09:33N 32°42' W 117°09'0 0.0
2016-Jul-16 08:34N 32°42' W 117°09'0 0.1
2016-Jul-16 07:33N 32°42' W 117°09'0 0.1
2016-Jul-16 06:34N 32°42' W 117°09'0 0.0
2016-Jul-16 04:30N 32°42' W 117°09'1 0.3
2016-Jul-16 00:33N 32°41' W 117°08'1 1.0
2016-Jul-15 23:23N 32°42' W 117°09'0 0.3
2016-Jul-15 22:29N 32°42' W 117°09'0 0.0
2016-Jul-15 19:26N 32°42' W 117°09'2 2.1
2016-Jul-15 18:32N 32°40' W 117°08'2 1.9
2016-Jul-15 17:32N 32°42' W 117°09'  
Track history (hours):
 
Tides and Currents Weather Stations Pressure Air Temp Water Temp Dewpoint Dewpoint Depression Visibility Wind Speed Wind Dir Waves Ship Positions

Scout

Owner: Crowley Marine Services, SEATTLE, WA. More information available from US FCC via Universal Licensing System and Coast Guard Vessel Documentation Center.

Last reported at 2016-Jul-25 17:32 UTC. Time now 2016-Jul-25 17:49 UTC.
Position N 32°40' W 117°07'.

; draft 5.6 m.

Type: Tug. MMSI: 366764730.

Date/timePositionNaut miles runAvg speedWind from/ knotsBaromVisibWave heightAir tempDewpointWater temp
2016-Jul-25 17:32N 32°40' W 117°07'0 0.0
2016-Jul-25 16:32N 32°40' W 117°07'1 0.8
2016-Jul-25 15:25N 32°39' W 117°07'3 3.9
2016-Jul-25 14:34N 32°42' W 117°09'0 0.0
2016-Jul-25 13:33N 32°42' W 117°09'0 0.0
2016-Jul-25 12:30N 32°42' W 117°09'0 0.0
2016-Jul-25 11:33N 32°42' W 117°09'0 0.1
2016-Jul-25 10:33N 32°42' W 117°09'0 0.1
2016-Jul-25 09:33N 32°42' W 117°09'0 0.0
2016-Jul-25 08:32N 32°42' W 117°09'0 0.0
2016-Jul-25 07:33N 32°42' W 117°09'0 0.0
2016-Jul-25 06:32N 32°42' W 117°09'0 0.0
2016-Jul-25 05:33N 32°42' W 117°09'0 0.0
2016-Jul-25 04:33N 32°42' W 117°09'0 0.0
2016-Jul-25 03:26N 32°42' W 117°09'0 0.0
2016-Jul-25 02:34N 32°42' W 117°09'0 0.0
2016-Jul-25 01:33N 32°42' W 117°09'0 0.0
2016-Jul-25 00:33N 32°42' W 117°09'0 0.0
2016-Jul-24 23:33N 32°42' W 117°09'0 0.0
2016-Jul-24 22:33N 32°42' W 117°09'0 0.0
2016-Jul-24 21:34N 32°42' W 117°09'0 0.1
2016-Jul-24 20:33N 32°42' W 117°09'0 0.1
2016-Jul-24 19:33N 32°42' W 117°09'0 0.0
2016-Jul-24 18:33N 32°42' W 117°09'0 0.1
2016-Jul-24 17:33N 32°42' W 117°09'0 0.0
2016-Jul-24 16:21N 32°42' W 117°09'0 0.0
2016-Jul-24 13:08N 32°42' W 117°09'0 0.0
2016-Jul-24 12:29N 32°42' W 117°09'0 0.3
2016-Jul-24 11:21N 32°42' W 117°10'0 0.2
2016-Jul-24 09:29N 32°42' W 117°09'0 0.0
2016-Jul-24 08:29N 32°42' W 117°09'0 0.0
2016-Jul-24 07:18N 32°42' W 117°09'0 0.0
2016-Jul-24 05:30N 32°42' W 117°09'0 0.0
2016-Jul-24 04:05N 32°42' W 117°09'0 0.0
2016-Jul-24 02:33N 32°42' W 117°09'0 0.0
2016-Jul-24 01:24N 32°42' W 117°09'0 0.1
2016-Jul-24 00:30N 32°42' W 117°09'0 0.0
2016-Jul-23 23:24N 32°42' W 117°09'0 0.0
2016-Jul-23 17:32N 32°42' W 117°09'0 0.0
2016-Jul-23 15:33N 32°42' W 117°09'0 0.0
2016-Jul-23 08:27N 32°42' W 117°09'0 0.0
2016-Jul-23 06:15N 32°42' W 117°09'0 0.0
2016-Jul-23 04:31N 32°42' W 117°09'3 3.4
2016-Jul-23 03:32N 32°39' W 117°07'3 0.6
2016-Jul-22 22:23N 32°42' W 117°09'0 0.0
2016-Jul-22 20:06N 32°42' W 117°09'0 0.0
2016-Jul-22 16:07N 32°42' W 117°09'0 0.1
2016-Jul-22 15:29N 32°42' W 117°09'0 0.0
2016-Jul-22 12:25N 32°42' W 117°09'0 0.0
2016-Jul-22 11:28N 32°42' W 117°09'0 0.0
2016-Jul-22 10:04N 32°42' W 117°09'0 0.0
2016-Jul-22 09:30N 32°42' W 117°09'0 0.0
2016-Jul-22 08:32N 32°42' W 117°09'0 0.0
2016-Jul-21 16:28N 32°42' W 117°09'3 3.1
2016-Jul-21 15:25N 32°39' W 117°07'3 0.4
2016-Jul-21 07:05N 32°42' W 117°09'0 0.0
2016-Jul-21 06:24N 32°42' W 117°09'0 0.0
2016-Jul-21 03:14N 32°42' W 117°09'2 3.1
2016-Jul-21 02:28N 32°43' W 117°12'3 1.1
2016-Jul-20 23:24N 32°41' W 117°08'1 0.2
2016-Jul-20 18:26N 32°42' W 117°09'0 0.0
2016-Jul-20 15:32N 32°42' W 117°09'0 0.0
2016-Jul-20 14:32N 32°42' W 117°09'3 3.5
2016-Jul-20 13:34N 32°39' W 117°07'3 3.3
2016-Jul-20 12:33N 32°42' W 117°09'0 0.0
2016-Jul-20 11:32N 32°42' W 117°09'0 0.1
2016-Jul-20 10:33N 32°42' W 117°09'0 0.0
2016-Jul-20 09:13N 32°42' W 117°09'0 0.0
2016-Jul-20 08:33N 32°42' W 117°09'0 0.0
2016-Jul-20 07:33N 32°42' W 117°09'0 0.0
2016-Jul-20 06:31N 32°42' W 117°09'0 0.0
2016-Jul-20 04:29N 32°42' W 117°09'0 0.0
2016-Jul-20 03:33N 32°42' W 117°09'0 0.0
2016-Jul-20 01:24N 32°42' W 117°09'3 3.5
2016-Jul-20 00:34N 32°39' W 117°07'3 2.5
2016-Jul-19 23:25N 32°42' W 117°09'0 0.0
2016-Jul-19 22:32N 32°42' W 117°09'0 0.0
2016-Jul-19 21:30N 32°42' W 117°09'0 0.0
2016-Jul-19 20:31N 32°42' W 117°09'0 0.0
2016-Jul-19 19:25N 32°42' W 117°09'0 0.0
2016-Jul-19 18:25N 32°42' W 117°09'0 0.0
2016-Jul-19 17:33N 32°42' W 117°09'0 0.0
2016-Jul-19 16:31N 32°42' W 117°09'0 0.0
2016-Jul-19 15:23N 32°42' W 117°09'0 0.0
2016-Jul-19 14:31N 32°42' W 117°09'0 0.1
2016-Jul-19 13:34N 32°42' W 117°09'0 0.1
2016-Jul-19 12:33N 32°42' W 117°09'0 0.1
2016-Jul-19 11:33N 32°42' W 117°09'1 1.2
2016-Jul-19 10:31N 32°41' W 117°08'1 1.3
2016-Jul-19 09:34N 32°42' W 117°09'0 0.0
2016-Jul-19 08:33N 32°42' W 117°09'0 0.0
2016-Jul-19 07:33N 32°42' W 117°09'0 0.0
2016-Jul-19 02:32N 32°42' W 117°09'0 0.0
2016-Jul-19 01:33N 32°42' W 117°09'0 0.0
2016-Jul-18 22:33N 32°42' W 117°09'0 0.0
2016-Jul-18 21:27N 32°42' W 117°09'0 0.0
2016-Jul-18 20:24N 32°42' W 117°09'0 0.1
2016-Jul-18 19:32N 32°42' W 117°09'0 0.0
2016-Jul-18 18:34N 32°42' W 117°09'0 0.1
2016-Jul-18 17:33N 32°42' W 117°09'0 0.0
2016-Jul-18 16:32N 32°42' W 117°09'0 0.0
2016-Jul-18 15:32N 32°42' W 117°09'0 0.1
2016-Jul-18 14:34N 32°42' W 117°09'0 0.0
2016-Jul-18 13:33N 32°42' W 117°09'0 0.0
2016-Jul-18 12:33N 32°42' W 117°09'0 0.4
2016-Jul-18 11:32N 32°42' W 117°10'0 0.4
2016-Jul-18 10:33N 32°42' W 117°09'0 0.0
2016-Jul-18 09:25N 32°42' W 117°09'0 0.0
2016-Jul-18 08:32N 32°42' W 117°09'0 0.0
2016-Jul-18 07:33N 32°42' W 117°09'0 0.0
2016-Jul-18 04:29N 32°42' W 117°09'2 1.8
2016-Jul-18 03:33N 32°40' W 117°08'2 1.6
2016-Jul-18 02:33N 32°42' W 117°09'0 0.1
2016-Jul-18 00:13N 32°42' W 117°09'0 0.1
2016-Jul-17 23:33N 32°42' W 117°09'0 0.1
2016-Jul-17 22:34N 32°42' W 117°09'0 0.0
2016-Jul-17 21:34N 32°42' W 117°09'0 0.0
2016-Jul-17 20:33N 32°42' W 117°09'0 0.0
2016-Jul-17 19:33N 32°42' W 117°09'0 0.0
2016-Jul-17 18:33N 32°42' W 117°09'0 0.0
2016-Jul-17 17:34N 32°42' W 117°09'0 0.0
2016-Jul-17 16:29N 32°42' W 117°09'0 0.0
2016-Jul-17 15:31N 32°42' W 117°09'0 0.0
2016-Jul-17 14:28N 32°42' W 117°09'0 0.0
2016-Jul-17 13:33N 32°42' W 117°09'0 0.0
2016-Jul-17 12:34N 32°42' W 117°09'0 0.0
2016-Jul-17 11:33N 32°42' W 117°09'0 0.0
2016-Jul-17 10:34N 32°42' W 117°09'0 0.0
2016-Jul-17 09:32N 32°42' W 117°09'0 0.0
2016-Jul-17 08:33N 32°42' W 117°09'0 0.0
2016-Jul-17 07:18N 32°42' W 117°09'0 0.0
2016-Jul-17 06:24N 32°42' W 117°09'0 0.0
2016-Jul-16 23:33N 32°42' W 117°09'1 0.9
2016-Jul-16 22:26N 32°41' W 117°08'0 0.1
2016-Jul-16 21:32N 32°41' W 117°08'0 0.1
2016-Jul-16 20:30N 32°41' W 117°08'1 0.4
2016-Jul-16 18:33N 32°42' W 117°09'0 0.0
2016-Jul-16 17:33N 32°42' W 117°09'0 0.0
2016-Jul-16 16:33N 32°42' W 117°09'0 0.0
2016-Jul-16 15:33N 32°42' W 117°09'0 0.0
2016-Jul-16 14:33N 32°42' W 117°09'0 0.0
2016-Jul-16 13:29N 32°42' W 117°09'0 0.0
2016-Jul-16 12:30N 32°42' W 117°09'0 0.1
2016-Jul-16 11:32N 32°42' W 117°09'0 0.0
2016-Jul-16 10:30N 32°42' W 117°09'0 0.0
2016-Jul-16 09:33N 32°42' W 117°09'0 0.0
2016-Jul-16 08:34N 32°42' W 117°09'0 0.1
2016-Jul-16 07:33N 32°42' W 117°09'0 0.1
2016-Jul-16 06:34N 32°42' W 117°09'0 0.0
2016-Jul-16 04:30N 32°42' W 117°09'1 0.3
2016-Jul-16 00:33N 32°41' W 117°08'1 1.0
2016-Jul-15 23:23N 32°42' W 117°09'0 0.3
2016-Jul-15 22:29N 32°42' W 117°09'0 0.0
2016-Jul-15 19:26N 32°42' W 117°09'2 2.1
2016-Jul-15 18:32N 32°40' W 117°08'2 1.9
2016-Jul-15 17:32N 32°42' W 117°09'  

Dump ship's entire track history